Time;durP1;ratioP1;P1;durP2;ratioP2;P2;SDS_P1;SDS_P2;PMS_P1;PMS_P2;Temp;Humidity;BMP_temperature;BMP_pressure;BME280_temperature;BME280_humidity;BME280_pressure;Samples;Min_cycle;Max_cycle;Signal;HPM_P1;HPM_P2
2020/12/22 00:00:17;;;;;;;113.95;74.30;;;;;;;4.79;73.65;100779.83;124394;1098;104580;-76
2020/12/22 00:02:46;;;;;;;90.07;51.43;;;;;;;4.83;73.21;100778.67;124470;1099;105044;-75
2020/12/22 00:05:15;;;;;;;94.10;57.67;;;;;;;4.83;73.45;100786.59;124499;1098;104537;-75
2020/12/22 00:07:43;;;;;;;159.03;100.30;;;;;;;4.84;73.35;100775.92;124421;1098;104973;-76
2020/12/22 00:10:12;;;;;;;94.90;56.25;;;;;;;4.83;73.42;100774.25;124488;1098;105026;-76
2020/12/22 00:12:40;;;;;;;91.83;51.03;;;;;;;4.84;73.20;100769.80;124595;1099;104666;-75
2020/12/22 00:15:09;;;;;;;83.67;46.37;;;;;;;4.83;73.78;100768.09;124446;1098;104545;-75
2020/12/22 00:17:41;;;;;;;82.70;48.70;;;;;;;4.82;73.02;100769.06;124615;1098;104605;-75
2020/12/22 00:20:09;;;;;;;72.40;40.60;;;;;;;4.77;73.64;100763.22;124479;1098;104609;-76
2020/12/22 00:22:37;;;;;;;74.83;45.10;;;;;;;4.72;73.42;100756.45;124563;1098;104978;-76
2020/12/22 00:25:06;;;;;;;98.10;65.20;;;;;;;4.75;73.51;100757.20;124374;1098;104536;-76
2020/12/22 00:27:34;;;;;;;85.67;52.43;;;;;;;4.78;73.48;100743.78;124376;1098;104538;-76
2020/12/22 00:30:04;;;;;;;99.27;61.97;;;;;;;4.81;73.50;100743.55;124311;1098;104522;-76
2020/12/22 00:32:33;;;;;;;91.23;51.73;;;;;;;4.79;73.35;100740.17;124426;1098;104656;-76
2020/12/22 00:35:01;;;;;;;82.73;49.57;;;;;;;4.78;73.44;100741.14;124501;1098;104526;-76
2020/12/22 00:37:29;;;;;;;97.87;57.53;;;;;;;4.78;73.45;100743.78;124421;1099;104503;-76
2020/12/22 00:39:58;;;;;;;91.90;56.87;;;;;;;4.78;73.25;100749.91;124420;1098;104611;-75
2020/12/22 00:42:29;;;;;;;133.37;90.10;;;;;;;4.82;73.44;100750.55;124465;1098;104699;-75
2020/12/22 00:44:57;;;;;;;151.40;90.80;;;;;;;4.83;73.45;100746.94;124345;1098;104570;-75
2020/12/22 00:47:25;;;;;;;192.83;110.83;;;;;;;4.87;73.61;100740.52;124418;1098;104650;-76
2020/12/22 00:49:53;;;;;;;128.80;71.80;;;;;;;4.91;73.47;100744.64;124364;1099;104523;-76
2020/12/22 00:52:21;;;;;;;113.77;60.67;;;;;;;4.88;73.35;100735.10;124476;1098;104615;-75
2020/12/22 00:54:50;;;;;;;98.80;53.77;;;;;;;4.83;73.35;100726.66;124436;1098;104583;-76
2020/12/22 00:57:18;;;;;;;84.33;44.93;;;;;;;4.80;73.17;100723.38;124431;1098;104971;-77
2020/12/22 01:00:13;;;;;;;75.17;37.93;;;;;;;4.74;73.12;100718.51;124433;1099;104512;-77
2020/12/22 01:02:41;;;;;;;61.73;32.70;;;;;;;4.74;73.53;100727.28;124451;1098;104717;-77
2020/12/22 01:05:10;;;;;;;67.20;33.27;;;;;;;4.73;73.34;100714.99;124448;1098;104522;-76
2020/12/22 01:07:38;;;;;;;73.63;41.37;;;;;;;4.73;73.48;100704.42;124419;1099;104548;-75
2020/12/22 01:10:06;;;;;;;65.87;39.10;;;;;;;4.69;73.35;100703.78;124466;1098;104503;-77
2020/12/22 01:12:34;;;;;;;62.00;35.25;;;;;;;4.68;73.47;100707.39;124515;1098;104638;-76
2020/12/22 01:15:03;;;;;;;60.70;35.07;;;;;;;4.68;73.57;100707.39;124407;1098;104652;-77
2020/12/22 01:17:31;;;;;;;72.17;44.20;;;;;;;4.69;73.37;100693.20;124456;1098;104516;-76
2020/12/22 01:19:59;;;;;;;63.35;35.60;;;;;;;4.69;73.78;100700.30;124465;1098;104535;-76
2020/12/22 01:22:27;;;;;;;65.63;38.10;;;;;;;4.71;73.34;100687.81;124443;1098;104663;-77
2020/12/22 01:24:55;;;;;;;62.03;34.13;;;;;;;4.71;73.23;100691.33;124478;1098;104618;-77
2020/12/22 01:27:23;;;;;;;52.40;31.60;;;;;;;4.69;73.29;100689.72;124422;1098;104531;-77
2020/12/22 01:29:51;;;;;;;48.30;28.13;;;;;;;4.67;73.43;100688.98;124441;1098;104503;-76
2020/12/22 01:32:19;;;;;;;45.53;27.03;;;;;;;4.65;73.38;100690.88;124491;1099;104580;-74
2020/12/22 01:34:48;;;;;;;51.80;31.73;;;;;;;4.67;73.32;100689.82;124447;1098;104611;-74
2020/12/22 01:37:16;;;;;;;46.03;25.90;;;;;;;4.67;73.25;100689.82;124458;1099;104503;-76
2020/12/22 01:39:44;;;;;;;50.67;29.30;;;;;;;4.69;73.27;100687.92;124440;1098;104522;-78
2020/12/22 01:42:12;;;;;;;50.43;28.67;;;;;;;4.70;73.35;100689.62;124516;1098;104666;-76
2020/12/22 01:44:40;;;;;;;49.70;29.10;;;;;;;4.68;73.30;100678.31;124499;1098;104605;-76
2020/12/22 01:47:09;;;;;;;45.23;26.03;;;;;;;4.68;73.24;100674.83;124495;1098;104624;-77
2020/12/22 01:49:38;;;;;;;48.93;26.53;;;;;;;4.68;73.28;100670.38;124600;1098;104519;-76
2020/12/22 01:52:06;;;;;;;46.75;27.60;;;;;;;4.71;72.86;100674.60;124563;1098;104657;-77
2020/12/22 01:54:34;;;;;;;45.93;24.43;;;;;;;4.72;73.44;100666.57;124439;1098;104917;-76
2020/12/22 01:57:10;;;;;;;41.80;25.03;;;;;;;4.74;73.33;100662.99;124450;1099;104542;-76
2020/12/22 01:59:39;;;;;;;43.77;25.50;;;;;;;4.72;73.24;100660.45;124473;1099;104603;-76
2020/12/22 02:02:08;;;;;;;41.60;23.57;;;;;;;4.71;73.41;100664.03;124462;1098;104778;-77
2020/12/22 02:04:37;;;;;;;39.03;22.57;;;;;;;4.75;73.57;100656.73;124452;1098;104706;-76
2020/12/22 02:07:05;;;;;;;48.67;26.50;;;;;;;4.79;73.31;100666.14;124429;1098;104510;-75
2020/12/22 02:09:33;;;;;;;42.93;24.90;;;;;;;4.80;73.12;100647.54;124432;1098;104519;-75
2020/12/22 02:12:03;;;;;;;42.57;24.63;;;;;;;4.81;73.20;100653.66;124441;1098;104670;-75
2020/12/22 02:14:31;;;;;;;43.23;26.13;;;;;;;4.83;73.00;100652.62;124419;1098;104509;-76
2020/12/22 02:16:59;;;;;;;43.70;25.65;;;;;;;4.86;73.11;100651.56;124443;1098;104871;-76
2020/12/22 02:19:28;;;;;;;43.87;26.60;;;;;;;4.89;73.17;100652.20;124471;1099;104533;-75
2020/12/22 02:21:56;;;;;;;39.13;22.53;;;;;;;4.88;73.07;100642.55;124482;1098;104666;-75
2020/12/22 02:24:24;;;;;;;40.45;23.40;;;;;;;4.90;73.02;100640.65;124442;1098;104504;-75
2020/12/22 02:26:52;;;;;;;40.70;24.07;;;;;;;4.93;72.74;100644.90;124424;1098;104609;-75
2020/12/22 02:29:20;;;;;;;39.53;24.40;;;;;;;4.90;73.18;100635.36;124426;1098;104893;-76
2020/12/22 02:31:48;;;;;;;40.00;23.90;;;;;;;4.93;72.72;100631.67;124464;1098;105573;-76
2020/12/22 02:34:17;;;;;;;42.20;25.30;;;;;;;4.92;73.10;100625.52;124435;1098;104552;-76
2020/12/22 02:36:45;;;;;;;64.20;36.53;;;;;;;4.89;72.90;100617.81;124425;1098;104660;-76
2020/12/22 02:39:14;;;;;;;53.07;31.37;;;;;;;4.90;72.83;100608.08;124428;1098;104605;-76
2020/12/22 02:41:42;;;;;;;52.60;31.23;;;;;;;4.87;72.88;100597.73;124535;1098;104612;-76
2020/12/22 02:44:10;;;;;;;79.80;44.13;;;;;;;4.88;73.00;100602.05;124494;1098;104609;-76
2020/12/22 02:46:38;;;;;;;57.03;33.20;;;;;;;4.89;73.03;100598.47;124461;1098;104603;-76
2020/12/22 02:49:06;;;;;;;69.77;37.23;;;;;;;4.90;73.15;100585.12;124437;1099;104561;-76
2020/12/22 02:51:34;;;;;;;71.27;39.87;;;;;;;4.95;72.89;100582.17;124472;1098;104621;-76
2020/12/22 02:54:03;;;;;;;84.27;46.53;;;;;;;4.97;72.66;100577.61;124430;1098;104612;-76
2020/12/22 02:56:31;;;;;;;68.33;36.97;;;;;;;4.97;73.00;100574.97;124400;1099;104724;-76
2020/12/22 02:58:59;;;;;;;79.20;44.40;;;;;;;4.96;72.62;100567.14;124429;1098;104989;-75
2020/12/22 03:01:27;;;;;;;54.95;30.45;;;;;;;4.96;73.01;100567.97;124481;1099;104503;-76
2020/12/22 03:03:55;;;;;;;61.90;34.80;;;;;;;4.92;72.52;100566.50;124444;1098;105003;-76
2020/12/22 03:06:24;;;;;;;46.97;26.87;;;;;;;4.90;72.80;100563.97;124438;1099;104519;-75
2020/12/22 03:08:52;;;;;;;45.00;25.13;;;;;;;4.92;72.41;100574.44;124482;1099;104925;-74
2020/12/22 03:11:20;;;;;;;50.50;27.73;;;;;;;4.91;72.50;100567.48;124432;1098;104602;-74
2020/12/22 03:13:48;;;;;;;41.57;23.70;;;;;;;4.91;72.85;100560.38;124454;1098;104615;-76
2020/12/22 03:16:19;;;;;;;41.53;24.37;;;;;;;4.89;72.33;100562.29;124436;1098;104874;-74
2020/12/22 03:18:47;;;;;;;34.87;19.33;;;;;;;4.86;72.44;100572.23;124519;1098;104519;-74
2020/12/22 03:21:16;;;;;;;33.47;19.57;;;;;;;4.85;72.46;100568.75;124479;1099;104654;-76
2020/12/22 03:23:44;;;;;;;30.40;18.03;;;;;;;4.86;72.12;100566.95;124422;1099;104639;-74
2020/12/22 03:26:12;;;;;;;35.00;20.55;;;;;;;4.84;72.28;100555.63;124428;1099;104492;-74
2020/12/22 03:28:40;;;;;;;36.97;20.53;;;;;;;4.79;72.36;100552.46;124401;1099;104605;-74
2020/12/22 03:31:08;;;;;;;35.10;20.80;;;;;;;4.79;72.37;100557.75;124492;1099;104619;-76
2020/12/22 03:33:37;;;;;;;35.85;20.55;;;;;;;4.78;72.30;100550.79;124452;1098;104615;-76
2020/12/22 03:36:05;;;;;;;36.83;21.33;;;;;;;4.74;72.71;100542.23;124393;1098;104618;-77
2020/12/22 03:38:33;;;;;;;31.03;18.50;;;;;;;4.68;72.20;100527.64;124452;1098;104570;-76
2020/12/22 03:41:01;;;;;;;30.03;17.73;;;;;;;4.67;72.31;100527.75;124506;1098;104695;-77
2020/12/22 03:43:29;;;;;;;33.03;19.43;;;;;;;4.69;72.05;100529.31;124377;1099;104659;-76
2020/12/22 03:45:57;;;;;;;36.80;20.80;;;;;;;4.68;72.30;100532.93;124414;1098;104605;-75
2020/12/22 03:48:25;;;;;;;35.07;20.83;;;;;;;4.68;72.50;100540.02;124405;1099;104500;-75
2020/12/22 03:50:54;;;;;;;35.87;21.47;;;;;;;4.65;71.80;100530.48;124497;1098;104628;-73
2020/12/22 03:53:22;;;;;;;35.30;21.73;;;;;;;4.64;72.21;100535.91;124451;1098;104990;-75
2020/12/22 03:55:50;;;;;;;35.60;20.90;;;;;;;4.63;72.32;100535.05;124476;1098;104525;-76
2020/12/22 03:58:18;;;;;;;31.83;18.50;;;;;;;4.61;71.99;100522.90;124460;1098;104570;-76
2020/12/22 04:00:46;;;;;;;33.33;19.67;;;;;;;4.60;72.30;100494.77;124543;1098;104628;-74
2020/12/22 04:03:14;;;;;;;36.37;21.30;;;;;;;4.60;71.96;100487.70;124499;1099;104559;-75
2020/12/22 04:05:42;;;;;;;37.00;20.23;;;;;;;4.61;71.95;100489.38;124552;1098;104548;-76
2020/12/22 04:08:11;;;;;;;36.90;21.83;;;;;;;4.60;72.05;100477.13;124397;1098;104516;-75
2020/12/22 04:10:39;;;;;;;35.57;19.73;;;;;;;4.60;72.09;100473.63;124468;1098;104605;-75
2020/12/22 04:13:07;;;;;;;36.10;19.13;;;;;;;4.55;72.09;100473.12;124417;1098;104580;-74
2020/12/22 04:15:35;;;;;;;33.20;20.00;;;;;;;4.54;71.74;100464.33;124440;1099;104631;-74
2020/12/22 04:18:03;;;;;;;35.90;20.50;;;;;;;4.55;72.31;100467.84;124436;1098;104606;-74
2020/12/22 04:20:31;;;;;;;33.80;21.23;;;;;;;4.53;72.29;100468.78;124440;1098;104619;-74
2020/12/22 04:22:59;;;;;;;35.60;21.30;;;;;;;4.50;72.18;100481.36;124416;1099;104641;-74
2020/12/22 04:25:27;;;;;;;39.23;21.63;;;;;;;4.46;71.76;100478.08;124413;1098;104567;-74
2020/12/22 04:27:55;;;;;;;32.33;19.07;;;;;;;4.42;71.91;100478.42;124419;1098;104519;-74
2020/12/22 04:30:23;;;;;;;36.53;19.23;;;;;;;4.37;71.74;100476.12;124381;1098;104676;-74
2020/12/22 04:32:51;;;;;;;39.85;21.15;;;;;;;4.33;71.98;100475.48;124462;1098;104579;-74
2020/12/22 04:35:20;;;;;;;35.70;20.40;;;;;;;4.30;71.86;100473.05;124420;1098;104497;-73
2020/12/22 04:37:48;;;;;;;37.97;22.00;;;;;;;4.25;71.92;100474.31;124449;1098;104528;-73
2020/12/22 04:40:16;;;;;;;35.13;21.07;;;;;;;4.20;72.29;100468.53;124475;1098;104682;-74
2020/12/22 04:42:44;;;;;;;36.10;21.70;;;;;;;4.15;71.32;100466.19;124479;1098;104564;-75
2020/12/22 04:45:13;;;;;;;35.47;20.23;;;;;;;4.07;71.80;100464.08;124424;1098;104609;-75
2020/12/22 04:47:42;;;;;;;32.43;19.10;;;;;;;4.02;72.09;100455.66;124520;1098;104519;-76
2020/12/22 04:50:12;;;;;;;35.10;21.07;;;;;;;3.95;71.67;100450.91;124442;1099;104593;-75
2020/12/22 04:52:41;;;;;;;39.20;22.23;;;;;;;3.87;72.27;100441.70;124397;1099;104620;-75
2020/12/22 04:55:10;;;;;;;36.43;21.63;;;;;;;3.83;71.38;100442.88;124424;1098;104615;-76
2020/12/22 04:57:47;;;;;;;37.97;21.97;;;;;;;3.80;71.33;100442.23;124382;1098;104648;-75
2020/12/22 05:00:16;;;;;;;40.17;22.23;;;;;;;3.72;71.81;100437.48;124505;1098;104666;-75
2020/12/22 05:02:45;;;;;;;35.00;19.70;;;;;;;3.66;71.73;100438.73;124427;1099;104665;-76
2020/12/22 05:05:14;;;;;;;37.60;20.60;;;;;;;3.63;71.97;100430.18;124431;1098;104637;-76
2020/12/22 05:07:42;;;;;;;35.87;21.07;;;;;;;3.63;72.30;100438.09;124485;1093;104608;-76
2020/12/22 05:10:12;;;;;;;37.85;21.65;;;;;;;3.61;71.55;100434.72;124499;1093;104596;-76
2020/12/22 05:12:42;;;;;;;38.20;22.20;;;;;;;3.61;72.26;100439.99;124435;1098;104532;-76
2020/12/22 05:15:11;;;;;;;34.87;21.37;;;;;;;3.58;72.10;100424.36;124458;1098;104529;-76
2020/12/22 05:17:43;;;;;;;31.33;18.03;;;;;;;3.56;71.44;100420.98;124435;1098;104584;-74
2020/12/22 05:20:13;;;;;;;32.33;18.33;;;;;;;3.58;71.97;100411.16;124531;1098;104868;-74
2020/12/22 05:22:45;;;;;;;35.67;20.43;;;;;;;3.62;71.98;100410.88;124478;1098;104605;-74
2020/12/22 05:25:17;;;;;;;37.07;20.43;;;;;;;3.67;72.13;100402.63;124406;1098;104913;-75
2020/12/22 05:27:50;;;;;;;35.70;20.10;;;;;;;3.72;71.71;100404.00;124433;1098;104625;-75
2020/12/22 05:30:19;;;;;;;38.95;21.35;;;;;;;3.74;71.27;100407.38;124472;1099;104632;-73
2020/12/22 05:32:50;;;;;;;35.70;20.20;;;;;;;3.78;71.91;100405.38;124409;1098;104519;-74
2020/12/22 05:35:19;;;;;;;33.18;19.02;;;;;;;3.78;71.27;100397.46;124512;1093;104589;-74
2020/12/22 05:37:48;;;;;;;34.30;20.40;;;;;;;3.80;71.68;100395.56;124447;1093;104590;-74
2020/12/22 05:40:16;;;;;;;31.87;19.77;;;;;;;3.83;71.44;100382.16;124521;1093;104594;-72
2020/12/22 05:42:47;;;;;;;28.93;16.80;;;;;;;3.87;71.70;100372.23;124419;1093;104609;-73
2020/12/22 05:45:15;;;;;;;27.23;15.77;;;;;;;3.88;71.10;100360.71;124428;1099;104530;-72
2020/12/22 05:47:45;;;;;;;33.70;18.20;;;;;;;3.90;71.60;100359.64;124403;1099;104605;-72
2020/12/22 05:50:14;;;;;;;34.80;18.20;;;;;;;3.91;70.89;100353.42;124509;1098;104644;-74
2020/12/22 05:52:45;;;;;;;31.70;17.37;;;;;;;3.91;71.41;100350.78;124451;1098;104548;-72
2020/12/22 05:55:24;;;;;;;27.87;15.03;;;;;;;3.90;71.85;100345.61;124486;1098;104606;-74
2020/12/22 05:58:07;;;;;;;31.80;16.33;;;;;;;3.93;71.19;100332.20;124444;1098;104496;-75
2020/12/22 06:00:36;;;;;;;34.00;16.73;;;;;;;3.91;71.43;100321.75;124528;1098;104679;-75
2020/12/22 06:03:09;;;;;;;32.60;16.63;;;;;;;3.92;71.75;100312.86;124356;1099;104604;-78
2020/12/22 06:05:39;;;;;;;39.67;20.97;;;;;;;3.89;71.48;100312.26;124343;1098;104612;-76
2020/12/22 06:08:09;;;;;;;42.00;22.37;;;;;;;3.86;71.22;100313.30;124458;1098;104528;-74
2020/12/22 06:10:38;;;;;;;33.07;17.43;;;;;;;3.84;71.16;100309.09;124438;1099;104583;-75
2020/12/22 06:13:08;;;;;;;31.95;16.90;;;;;;;3.84;71.66;100317.01;124523;1099;104595;-72
2020/12/22 06:15:36;;;;;;;34.13;17.37;;;;;;;3.82;71.09;100321.55;124456;1093;104500;-74
2020/12/22 06:18:05;;;;;;;36.13;18.63;;;;;;;3.82;71.76;100311.83;124523;1098;104611;-73
2020/12/22 06:20:34;;;;;;;35.63;20.07;;;;;;;3.80;70.96;100313.73;124545;1098;104586;-73
2020/12/22 06:23:04;;;;;;;35.57;18.23;;;;;;;3.80;71.01;100313.73;124418;1098;104558;-75
2020/12/22 06:25:33;;;;;;;30.57;16.03;;;;;;;3.79;71.25;100311.20;124527;1093;104608;-74
2020/12/22 06:28:01;;;;;;;34.85;15.95;;;;;;;3.76;71.68;100316.72;124444;1098;104730;-72
2020/12/22 06:30:34;;;;;;;40.60;20.77;;;;;;;3.74;71.80;100309.73;124429;1098;104676;-75
2020/12/22 06:33:19;;;;;;;38.13;21.97;;;;;;;3.75;71.37;100302.65;124478;1098;104624;-74
2020/12/22 06:36:05;;;;;;;35.93;19.47;;;;;;;3.75;71.03;100297.38;124454;1098;106057;-74
2020/12/22 06:38:53;;;;;;;40.80;23.00;;;;;;;3.76;71.30;100293.80;124395;1098;104616;-76
2020/12/22 06:41:46;;;;;;;42.37;22.50;;;;;;;3.73;71.36;100286.08;124535;1098;104989;-77
2020/12/22 06:44:22;;;;;;;36.83;19.37;;;;;;;3.72;71.79;100285.25;124369;1098;104554;-76
2020/12/22 06:46:55;;;;;;;34.63;19.10;;;;;;;3.74;71.68;100279.86;124422;1099;104948;-73
2020/12/22 06:49:54;;;;;;;42.20;20.63;;;;;;;3.74;71.61;100267.50;124401;1098;104663;-73
2020/12/22 06:52:35;;;;;;;43.53;21.17;;;;;;;3.75;71.41;100255.14;124110;1101;104681;-74
2020/12/22 06:55:06;;;;;;;34.48;17.70;;;;;;;3.75;70.86;100257.78;124436;1098;104734;-75
2020/12/22 06:57:46;;;;;;;40.77;21.77;;;;;;;3.78;71.25;100256.75;124436;1098;104497;-72
2020/12/22 07:00:38;;;;;;;39.05;21.55;;;;;;;3.82;70.80;100243.20;124454;1098;104641;-72
2020/12/22 07:03:14;;;;;;;44.23;23.47;;;;;;;3.86;71.15;100241.20;124489;1098;104631;-72
2020/12/22 07:05:43;;;;;;;49.20;27.60;;;;;;;3.87;71.23;100237.61;124451;1098;104579;-73
2020/12/22 07:08:12;;;;;;;46.53;25.27;;;;;;;3.92;70.89;100238.11;124437;1099;104526;-72
2020/12/22 07:10:42;;;;;;;44.43;25.77;;;;;;;3.95;70.80;100242.34;124473;1098;104606;-75
2020/12/22 07:13:12;;;;;;;40.23;23.10;;;;;;;3.92;71.47;100238.94;124519;1098;104676;-72
2020/12/22 07:15:46;;;;;;;46.03;25.97;;;;;;;3.93;71.24;100239.81;124462;1098;104614;-72
2020/12/22 07:18:15;;;;;;;44.53;24.53;;;;;;;3.92;70.70;100223.10;124436;1098;104606;-75
2020/12/22 07:20:44;;;;;;;50.57;27.73;;;;;;;3.93;70.79;100218.69;124702;1093;104526;-72
2020/12/22 07:23:14;;;;;;;56.20;29.23;;;;;;;3.93;70.60;100223.97;124554;1098;104650;-74
2020/12/22 07:25:43;;;;;;;51.77;26.33;;;;;;;3.92;70.77;100209.91;124429;1098;104600;-75
2020/12/22 07:28:12;;;;;;;59.43;31.17;;;;;;;3.94;71.01;100212.44;124462;1098;104493;-73
2020/12/22 07:30:40;;;;;;;52.27;27.43;;;;;;;3.98;70.51;100210.42;124407;1098;104532;-72
2020/12/22 07:33:08;;;;;;;47.57;25.23;;;;;;;3.95;70.38;100200.11;124509;1098;104613;-74
2020/12/22 07:35:36;;;;;;;48.03;26.10;;;;;;;3.90;70.43;100192.50;124477;1098;104537;-77
2020/12/22 07:38:06;;;;;;;66.47;32.70;;;;;;;3.86;70.39;100193.69;124322;1098;104990;-75
2020/12/22 07:40:37;;;;;;;52.17;29.27;;;;;;;3.87;71.23;100193.58;124444;1098;104672;-74
2020/12/22 07:43:07;;;;;;;41.13;22.87;;;;;;;3.87;70.92;100183.02;124577;1098;104526;-72
2020/12/22 07:45:36;;;;;;;40.50;23.73;;;;;;;3.87;71.30;100176.91;124440;1098;104573;-71
2020/12/22 07:48:08;;;;;;;39.23;21.93;;;;;;;3.84;70.46;100182.39;124554;1098;104525;-76
2020/12/22 07:50:36;;;;;;;41.55;22.13;;;;;;;3.82;70.72;100177.22;124479;1098;104570;-76
2020/12/22 07:53:04;;;;;;;40.70;24.17;;;;;;;3.81;70.52;100178.20;124471;1098;104619;-73
2020/12/22 07:55:39;;;;;;;36.75;21.00;;;;;;;3.81;70.56;100167.64;124413;1098;104662;-80
2020/12/22 07:58:08;;;;;;;35.20;20.37;;;;;;;3.82;70.47;100165.83;124471;1098;104518;-74
2020/12/22 08:00:37;;;;;;;33.37;19.53;;;;;;;3.81;70.49;100162.36;124443;1098;104576;-73
2020/12/22 08:03:15;;;;;;;35.35;21.05;;;;;;;3.83;70.45;100151.66;124503;1098;104666;-74
2020/12/22 08:05:57;;;;;;;34.17;19.23;;;;;;;3.82;71.05;100147.36;125090;1093;104574;-74
2020/12/22 08:08:24;;;;;;;;;;;;;;;3.78;71.10;100136.17;124645;1093;104595;-73
2020/12/22 08:10:52;;;;;;;35.88;20.12;;;;;;;3.72;71.43;100137.47;124586;1093;104573;-74
2020/12/22 08:13:24;;;;;;;34.85;20.05;;;;;;;3.72;70.65;100136.63;124571;1093;104497;-73
2020/12/22 08:15:53;;;;;;;33.97;19.47;;;;;;;3.74;71.28;100150.55;124568;1098;104507;-76
2020/12/22 08:18:23;;;;;;;34.07;19.13;;;;;;;3.76;71.47;100134.61;124503;1099;104522;-74
2020/12/22 08:20:52;;;;;;;32.60;17.67;;;;;;;3.78;71.38;100136.17;124659;1099;104516;-73
2020/12/22 08:23:21;;;;;;;31.95;18.05;;;;;;;3.80;70.58;100134.27;124545;1098;104660;-73
2020/12/22 08:25:51;;;;;;;30.50;19.13;;;;;;;3.82;71.52;100128.87;124534;1098;104582;-73
2020/12/22 08:28:26;;;;;;;31.93;18.43;;;;;;;3.79;71.50;100132.59;124555;1098;104558;-74
2020/12/22 08:30:55;;;;;;;29.93;17.33;;;;;;;3.73;70.90;100122.47;124492;1098;104532;-73
2020/12/22 08:33:24;;;;;;;31.77;17.17;;;;;;;3.72;71.95;100123.44;124524;1099;104705;-75
2020/12/22 08:35:53;;;;;;;31.00;17.90;;;;;;;3.73;71.92;100119.83;124635;1093;104588;-75
2020/12/22 08:38:28;;;;;;;31.60;18.70;;;;;;;3.74;71.69;100110.97;124505;1093;104528;-74
2020/12/22 08:41:12;;;;;;;31.60;18.13;;;;;;;3.74;71.79;100106.52;124646;1093;104608;-76
2020/12/22 08:43:48;;;;;;;35.10;19.70;;;;;;;3.71;71.45;100103.27;124572;1099;104616;-73
2020/12/22 08:46:18;;;;;;;27.23;15.83;;;;;;;3.71;72.52;100100.63;124602;1098;104600;-74
2020/12/22 08:48:47;;;;;;;28.20;17.20;;;;;;;3.72;71.89;100089.97;124571;1098;105022;-74
2020/12/22 08:51:26;;;;;;;31.07;17.57;;;;;;;3.69;71.84;100095.45;124645;1098;104526;-73
2020/12/22 08:53:56;;;;;;;34.77;18.20;;;;;;;3.67;72.01;100083.34;124603;1093;104659;-73
2020/12/22 08:56:25;;;;;;;408.13;298.17;;;;;;;3.69;72.61;100087.54;124534;1099;104516;-73
2020/12/22 08:58:57;;;;;;;400.30;273.87;;;;;;;3.71;72.90;100083.02;124520;1098;104520;-73
2020/12/22 09:01:28;;;;;;;164.07;99.17;;;;;;;3.73;72.03;100081.11;124436;1098;104541;-73
2020/12/22 09:03:58;;;;;;;91.97;60.10;;;;;;;3.74;72.88;100077.50;124688;1098;104651;-73
2020/12/22 09:06:41;;;;;;;88.50;61.30;;;;;;;3.81;72.21;100066.48;124569;1098;104611;-73
2020/12/22 09:09:12;;;;;;;116.50;86.75;;;;;;;3.80;72.89;100076.20;124432;1098;104592;-73
2020/12/22 09:11:40;;;;;;;167.50;117.87;;;;;;;3.80;72.21;100065.64;124454;1098;104609;-73
2020/12/22 09:14:11;;;;;;;403.33;315.07;;;;;;;3.85;72.25;100062.65;124530;1098;104705;-74
2020/12/22 09:16:48;;;;;;;264.80;168.20;;;;;;;3.89;73.08;100058.85;124554;1098;104570;-73
2020/12/22 09:19:17;;;;;;;309.93;222.33;;;;;;;3.86;72.90;100059.91;124632;1098;104526;-73
2020/12/22 09:21:46;;;;;;;212.30;140.63;;;;;;;3.86;72.84;100051.98;124559;1098;104503;-73
2020/12/22 09:24:19;;;;;;;102.47;65.13;;;;;;;3.83;72.99;100043.45;124695;1098;104747;-73
2020/12/22 09:27:12;;;;;;;129.57;92.13;;;;;;;3.81;73.28;100045.36;124552;1098;104760;-73
2020/12/22 09:29:42;;;;;;;80.80;54.43;;;;;;;3.82;72.81;100047.06;124420;1098;104615;-73
2020/12/22 09:32:11;;;;;;;70.80;47.60;;;;;;;3.82;72.75;100032.06;124484;1098;104889;-74
2020/12/22 09:34:40;;;;;;;55.80;36.40;;;;;;;3.83;72.85;100032.89;124597;1098;104640;-73
2020/12/22 09:37:09;;;;;;;59.93;38.90;;;;;;;3.81;73.12;100030.39;124509;1098;104595;-72
2020/12/22 09:39:38;;;;;;;77.15;56.20;;;;;;;3.79;72.85;100032.31;124474;1098;104519;-73
2020/12/22 09:42:07;;;;;;;48.20;32.05;;;;;;;3.81;73.41;100025.12;124556;1098;104506;-73
2020/12/22 09:44:36;;;;;;;49.73;31.67;;;;;;;3.87;73.48;100007.98;124582;1098;104542;-73
2020/12/22 09:47:04;;;;;;;59.60;42.00;;;;;;;3.91;73.62;100014.70;124487;1099;104605;-73
2020/12/22 09:49:32;;;;;;;54.83;36.10;;;;;;;3.88;73.48;99999.92;124476;1099;104525;-73
2020/12/22 09:52:00;;;;;;;56.87;35.57;;;;;;;3.84;73.32;100002.92;124544;1098;104551;-73
2020/12/22 09:54:29;;;;;;;53.60;32.50;;;;;;;3.80;73.58;99997.03;124492;1098;104599;-72
2020/12/22 09:56:57;;;;;;;61.70;36.43;;;;;;;3.80;73.46;100001.47;124560;1098;104615;-74
2020/12/22 09:59:25;;;;;;;88.13;48.50;;;;;;;3.76;73.89;99984.19;124638;1092;104638;-73
2020/12/22 10:01:55;;;;;;;128.23;73.70;;;;;;;3.74;73.66;99987.77;124644;1092;104702;-72
2020/12/22 10:04:23;;;;;;;76.67;42.23;;;;;;;3.74;73.20;99981.66;124520;1098;104775;-76
2020/12/22 10:06:51;;;;;;;70.05;41.20;;;;;;;3.73;74.42;99965.00;124509;1098;104966;-76
2020/12/22 10:09:19;;;;;;;58.93;35.83;;;;;;;3.72;73.79;99962.47;124501;1099;104570;-76
2020/12/22 10:11:48;;;;;;;51.77;30.40;;;;;;;3.71;73.54;99972.19;124613;1098;104487;-73
2020/12/22 10:14:16;;;;;;;42.03;25.97;;;;;;;3.76;73.80;99952.52;126058;1091;104605;-78
2020/12/22 10:16:45;;;;;;;42.30;25.95;;;;;;;3.77;73.71;99952.38;124754;1093;104583;-77
2020/12/22 10:19:13;;;;;;;34.50;21.90;;;;;;;3.80;74.29;99948.69;124758;1093;104523;-76
2020/12/22 10:21:42;;;;;;;34.40;21.13;;;;;;;3.82;74.33;99939.69;124488;1093;104578;-76
2020/12/22 10:24:10;;;;;;;34.60;22.90;;;;;;;3.83;74.04;99938.74;124601;1098;104676;-76
2020/12/22 10:26:38;;;;;;;64.97;44.03;;;;;;;3.82;74.51;99929.12;124515;1098;104609;-75
2020/12/22 10:29:06;;;;;;;201.20;154.47;;;;;;;3.83;74.39;99920.27;124471;1098;104602;-75
2020/12/22 10:31:34;;;;;;;203.40;136.03;;;;;;;3.81;73.97;99923.97;124487;1098;104611;-75
2020/12/22 10:34:02;;;;;;;398.17;253.97;;;;;;;3.82;74.52;99918.58;124653;1093;104718;-76
2020/12/22 10:36:30;;;;;;;244.83;131.23;;;;;;;3.83;74.11;99909.71;124414;1098;104900;-78
2020/12/22 10:38:58;;;;;;;206.90;127.10;;;;;;;3.84;73.88;99908.73;124479;1099;104603;-79
2020/12/22 10:41:26;;;;;;;162.07;93.97;;;;;;;3.86;74.18;99911.27;124400;1098;104523;-72
2020/12/22 10:43:55;;;;;;;229.97;151.43;;;;;;;3.87;74.10;99908.52;124602;1093;104666;-74
2020/12/22 10:46:23;;;;;;;123.90;75.97;;;;;;;3.86;74.01;99905.98;124534;1098;104574;-74
2020/12/22 10:48:51;;;;;;;208.00;123.90;;;;;;;3.87;74.04;99905.04;124502;1093;104654;-75
2020/12/22 10:51:19;;;;;;;96.03;56.10;;;;;;;3.90;74.23;99896.86;124467;1098;104643;-73
2020/12/22 10:53:47;;;;;;;58.50;30.77;;;;;;;3.92;74.60;99890.50;124545;1098;104596;-74
2020/12/22 10:56:17;;;;;;;68.80;43.90;;;;;;;3.93;74.37;99886.08;124509;1098;104602;-74
2020/12/22 10:58:45;;;;;;;62.23;38.57;;;;;;;3.96;74.46;99898.19;124560;1098;104590;-76
2020/12/22 11:01:16;;;;;;;60.17;38.90;;;;;;;3.93;74.23;99886.91;124475;1098;104528;-73
2020/12/22 11:03:45;;;;;;;62.08;41.13;;;;;;;3.97;74.31;99881.41;124528;1098;104521;-76
2020/12/22 11:06:31;;;;;;;50.50;31.90;;;;;;;3.95;75.05;99883.33;124474;1098;104920;-75
2020/12/22 11:08:59;;;;;;;57.73;38.53;;;;;;;3.90;75.13;99870.47;124501;1098;104718;-75
2020/12/22 11:11:27;;;;;;;48.33;31.60;;;;;;;3.91;75.23;99867.72;124458;1098;104606;-74
2020/12/22 11:13:55;;;;;;;40.40;27.00;;;;;;;3.93;75.32;99867.60;124543;1098;104638;-74